createdAt,value
2018-06-12T00:02:40.054Z,90.70
2018-06-12T00:06:43.083Z,90.40
2018-06-12T00:10:45.802Z,90.30
2018-06-12T00:14:51.683Z,90.10
2018-06-12T00:18:54.381Z,90.60
2018-06-12T00:22:57.323Z,90.50
2018-06-12T00:26:59.971Z,90.50
2018-06-12T00:31:03.058Z,90.70
2018-06-12T00:35:05.957Z,90.60
2018-06-12T00:39:09.073Z,90.20
2018-06-12T00:43:11.704Z,90.10
2018-06-12T00:47:14.390Z,90.60
2018-06-12T00:51:17.013Z,90.40
2018-06-12T00:55:23.626Z,90.50
2018-06-12T00:59:26.290Z,90.60
2018-06-12T01:03:28.978Z,90.90
2018-06-12T01:07:31.797Z,90.90
2018-06-12T01:11:36.822Z,91.10
2018-06-12T01:15:39.484Z,91.10
2018-06-12T01:19:42.192Z,91.10
2018-06-12T01:23:44.845Z,91.30
2018-06-12T01:27:47.501Z,91.20
2018-06-12T01:31:52.588Z,91.10
2018-06-12T01:35:55.384Z,91.10
2018-06-12T01:39:58.012Z,90.80
2018-06-12T01:44:01.287Z,90.60
2018-06-12T01:48:04.393Z,90.70
2018-06-12T01:52:07.506Z,90.80
2018-06-12T01:56:10.181Z,91.30
2018-06-12T02:00:12.986Z,91.30
2018-06-12T02:04:15.633Z,91.10
2018-06-12T02:08:19.394Z,91.50
2018-06-12T02:12:22.220Z,90.80
2018-06-12T02:16:25.019Z,91.10
2018-06-12T02:20:35.517Z,90.90
2018-06-12T02:24:38.346Z,91.10
2018-06-12T02:28:41.004Z,91.30
2018-06-12T02:32:43.947Z,90.40
2018-06-12T02:36:46.736Z,90.80
2018-06-12T02:41:02.138Z,90.60
2018-06-12T02:45:05.261Z,90.80
2018-06-12T02:49:08.226Z,90.90
2018-06-12T02:53:10.872Z,90.20
2018-06-12T02:57:13.630Z,90.20
2018-06-12T03:01:16.365Z,90.20
2018-06-12T03:05:19.119Z,90.10
2018-06-12T03:09:21.831Z,90.10
2018-06-12T03:13:24.648Z,90.30
2018-06-12T03:17:27.340Z,90.40
2018-06-12T03:21:30.024Z,90.30
2018-06-12T03:25:33.513Z,90.50
2018-06-12T03:29:36.600Z,90.60
2018-06-12T03:33:39.286Z,90.60
2018-06-12T03:37:42.200Z,90.40
2018-06-12T03:41:44.830Z,90.60
2018-06-12T03:45:47.490Z,90.80
2018-06-12T03:49:50.195Z,90.50
2018-06-12T03:53:53.070Z,90.50
2018-06-12T03:57:55.725Z,90.50
2018-06-12T04:01:58.830Z,90.30
2018-06-12T04:06:02.445Z,90.10
2018-06-12T04:10:05.842Z,90.10
2018-06-12T04:14:08.542Z,90.00
2018-06-12T04:18:11.219Z,90.20
2018-06-12T04:22:13.903Z,90.10
2018-06-12T04:26:16.667Z,89.90
2018-06-12T04:30:22.500Z,90.10
2018-06-12T04:34:31.078Z,90.40
2018-06-12T04:38:34.827Z,90.70
2018-06-12T04:42:37.640Z,90.50
2018-06-12T04:46:40.290Z,90.60
2018-06-12T04:50:43.056Z,90.60
2018-06-12T04:54:45.662Z,89.70
2018-06-12T04:58:48.407Z,90.20
2018-06-12T05:03:02.833Z,90.00
2018-06-12T05:07:06.059Z,90.20
2018-06-12T05:11:08.673Z,86.70
2018-06-12T05:15:11.506Z,84.80
2018-06-12T05:19:22.056Z,85.10
2018-06-12T05:23:24.843Z,85.20
2018-06-12T05:27:27.518Z,87.80
2018-06-12T05:31:30.227Z,85.90
2018-06-12T05:35:36.886Z,84.40
2018-06-12T05:39:39.711Z,85.80
2018-06-12T05:43:42.487Z,84.50
2018-06-12T05:47:45.229Z,86.60
2018-06-12T05:51:47.873Z,87.40
2018-06-12T05:55:51.863Z,89.40
2018-06-12T05:59:54.512Z,85.10
2018-06-12T06:03:58.650Z,88.70
2018-06-12T06:08:01.427Z,84.00
2018-06-12T06:12:04.506Z,82.80
2018-06-12T06:16:07.382Z,83.50
2018-06-12T06:20:10.326Z,84.30
2018-06-12T06:24:12.930Z,87.60
2018-06-12T06:28:15.635Z,85.30
2018-06-12T06:32:18.306Z,84.40
2018-06-12T06:36:21.306Z,85.90
2018-06-12T06:40:24.190Z,84.20
2018-06-12T06:44:28.121Z,82.60
2018-06-12T06:48:30.976Z,80.90
2018-06-12T06:52:34.071Z,80.50
2018-06-12T06:56:36.956Z,83.30
2018-06-12T07:00:39.634Z,80.60
2018-06-12T07:04:42.253Z,83.50
2018-06-12T07:08:44.956Z,80.50
2018-06-12T07:12:47.597Z,80.60
2018-06-12T07:16:50.458Z,78.00
2018-06-12T07:21:05.063Z,79.60
2018-06-12T07:25:08.080Z,78.10
2018-06-12T07:29:10.731Z,80.20
2018-06-12T07:33:26.046Z,81.50
2018-06-12T07:37:29.000Z,79.10
2018-06-12T07:41:33.538Z,79.30
2018-06-12T07:49:47.712Z,78.30
2018-06-12T07:53:53.942Z,79.60
2018-06-12T07:57:56.738Z,78.80
2018-06-12T08:02:01.598Z,80.30
2018-06-12T08:06:04.507Z,78.30
2018-06-12T08:10:07.354Z,79.10
2018-06-12T08:14:10.186Z,79.10
2018-06-12T08:18:12.809Z,77.40
2018-06-12T08:22:15.598Z,78.30
2018-06-12T08:26:18.226Z,77.80
2018-06-12T08:30:21.122Z,77.30
2018-06-12T08:34:29.562Z,77.40
2018-06-12T08:38:32.773Z,79.50
2018-06-12T08:42:35.697Z,78.70
2018-06-12T08:46:38.434Z,80.70
2018-06-12T08:50:41.090Z,79.20
2018-06-12T08:54:43.882Z,78.00
2018-06-12T08:58:47.521Z,79.40
2018-06-12T09:02:50.846Z,80.40
2018-06-12T09:06:53.472Z,79.50
2018-06-12T09:10:56.211Z,79.70
2018-06-12T09:14:58.942Z,80.80
2018-06-12T09:19:01.975Z,80.10
2018-06-12T09:23:07.976Z,81.70
2018-06-12T09:27:11.042Z,82.30
2018-06-12T09:31:13.660Z,81.60
2018-06-12T09:35:16.314Z,84.70
2018-06-12T09:39:22.777Z,81.40
2018-06-12T09:43:25.643Z,81.10
2018-06-12T09:47:28.238Z,81.40
2018-06-12T09:51:31.231Z,81.20
2018-06-12T09:55:34.076Z,80.60
2018-06-12T09:59:37.050Z,79.80
2018-06-12T10:03:50.118Z,80.80
2018-06-12T10:07:53.093Z,80.60
2018-06-12T10:11:55.819Z,79.00
2018-06-12T10:15:58.631Z,79.10
2018-06-12T10:20:01.361Z,80.60
2018-06-12T10:24:04.327Z,77.20
2018-06-12T10:28:08.118Z,75.90
2018-06-12T10:32:10.808Z,74.30
2018-06-12T10:36:17.954Z,72.90
2018-06-12T10:40:22.050Z,73.50
2018-06-12T10:44:24.994Z,76.50
2018-06-12T10:48:33.019Z,75.00
2018-06-12T10:52:35.915Z,71.00
2018-06-12T10:56:38.658Z,76.10
2018-06-12T11:00:41.371Z,71.90
2018-06-12T11:04:44.553Z,77.50
2018-06-12T11:08:53.434Z,69.60
2018-06-12T11:17:14.551Z,70.20
2018-06-12T11:21:23.106Z,74.10
2018-06-12T11:25:26.853Z,72.10
2018-06-12T11:29:30.423Z,72.20
2018-06-12T11:33:34.170Z,73.00
2018-06-12T11:37:39.782Z,71.40
2018-06-12T11:45:48.855Z,70.50
2018-06-12T11:49:52.815Z,72.10
2018-06-12T11:58:01.803Z,70.30
2018-06-12T12:02:05.612Z,74.30
2018-06-12T12:06:09.341Z,69.60
2018-06-12T12:10:14.065Z,70.70
2018-06-12T12:14:17.715Z,70.70
2018-06-12T12:18:21.323Z,71.10
2018-06-12T12:22:25.227Z,67.90
2018-06-12T12:26:28.863Z,69.80
2018-06-12T12:30:33.070Z,69.20
2018-06-12T12:34:36.978Z,68.30
2018-06-12T12:38:40.666Z,71.10
2018-06-12T12:42:44.156Z,69.70
2018-06-12T12:46:50.136Z,68.10
2018-06-12T12:50:53.785Z,67.50
2018-06-12T12:54:57.503Z,70.40
2018-06-12T12:59:05.471Z,70.30
2018-06-12T13:03:09.338Z,70.20
2018-06-12T13:07:12.894Z,70.30
2018-06-12T13:11:16.585Z,70.50
2018-06-12T13:15:20.444Z,69.70
2018-06-12T13:19:25.052Z,70.30
2018-06-12T13:23:34.061Z,69.40
2018-06-12T13:27:40.206Z,71.20
2018-06-12T13:31:43.851Z,68.30
2018-06-12T13:35:47.489Z,71.00
2018-06-12T13:39:51.143Z,70.40
2018-06-12T13:43:55.730Z,71.40
2018-06-12T13:48:02.909Z,73.50
2018-06-12T13:52:06.867Z,73.00
2018-06-12T13:56:10.391Z,75.70
2018-06-12T14:00:18.771Z,75.50
2018-06-12T14:04:24.315Z,75.00
2018-06-12T14:08:27.895Z,73.90
2018-06-12T14:12:33.511Z,75.50
2018-06-12T14:16:37.176Z,73.00
2018-06-12T14:20:40.818Z,75.40
2018-06-12T14:24:44.584Z,75.40
2018-06-12T14:28:52.066Z,74.90
2018-06-12T14:32:55.854Z,73.60
2018-06-12T14:37:03.782Z,75.00
2018-06-12T14:41:08.559Z,73.20
2018-06-12T14:45:23.766Z,74.70
2018-06-12T14:49:27.410Z,69.20
2018-06-12T14:53:30.997Z,74.60
2018-06-12T14:57:34.899Z,75.60
2018-06-12T15:01:39.565Z,73.90
2018-06-12T15:05:43.097Z,73.10
2018-06-12T15:09:46.659Z,72.30
2018-06-12T15:13:51.366Z,72.90
2018-06-12T15:17:54.915Z,71.00
2018-06-12T15:21:58.803Z,69.50
2018-06-12T15:26:02.436Z,71.00
2018-06-12T15:30:06.363Z,74.10
2018-06-12T15:34:09.892Z,72.90
2018-06-12T15:38:23.338Z,73.90
2018-06-12T15:42:26.958Z,74.20
2018-06-12T15:46:34.896Z,73.40
2018-06-12T15:50:40.483Z,74.10
2018-06-12T15:54:44.085Z,74.70
2018-06-12T15:58:47.558Z,73.60
2018-06-12T16:02:51.253Z,73.90
2018-06-12T16:06:54.788Z,74.90
2018-06-12T16:10:58.314Z,75.10
2018-06-12T16:15:02.286Z,74.70
2018-06-12T16:19:07.110Z,74.70
2018-06-12T16:23:11.314Z,74.40
2018-06-12T16:27:14.946Z,75.50
2018-06-12T16:31:18.431Z,75.20
2018-06-12T16:35:26.194Z,73.30
2018-06-12T16:39:29.804Z,75.30
2018-06-12T16:43:36.926Z,74.90
2018-06-12T16:47:42.859Z,75.40
2018-06-12T16:51:46.487Z,74.80
2018-06-12T16:55:50.008Z,75.40
2018-06-12T16:59:59.389Z,75.90
2018-06-12T17:04:05.034Z,74.00
2018-06-12T17:08:10.594Z,74.30
2018-06-12T17:12:15.162Z,75.50
2018-06-12T17:16:22.464Z,75.20
2018-06-12T17:20:25.985Z,73.90
2018-06-12T17:24:34.752Z,74.80
2018-06-12T17:28:38.365Z,74.10
2018-06-12T17:32:42.514Z,73.60
2018-06-12T17:36:47.066Z,72.80
2018-06-12T17:40:50.608Z,74.70
2018-06-12T17:44:55.294Z,76.00
2018-06-12T17:48:59.360Z,73.10
2018-06-12T17:53:04.719Z,76.40
2018-06-12T17:57:09.576Z,73.90
2018-06-12T18:01:13.206Z,74.50
2018-06-12T18:05:18.025Z,74.10
2018-06-12T18:09:22.580Z,73.10
2018-06-12T18:13:26.387Z,75.10
2018-06-12T18:17:30.027Z,76.10
2018-06-12T18:21:34.305Z,75.20
2018-06-12T18:25:38.477Z,75.60
2018-06-12T18:29:43.366Z,75.70
2018-06-12T18:33:52.419Z,77.20
2018-06-12T18:37:59.579Z,77.80
2018-06-12T18:42:03.502Z,78.50
2018-06-12T18:46:07.869Z,77.50
2018-06-12T18:50:12.250Z,77.40
2018-06-12T18:54:17.616Z,79.20
2018-06-12T18:58:24.703Z,77.00
2018-06-12T19:02:28.574Z,78.10
2018-06-12T19:06:32.277Z,76.70
2018-06-12T19:10:40.293Z,77.00
2018-06-12T19:14:43.981Z,75.20
2018-06-12T19:18:48.233Z,77.70
2018-06-12T19:22:57.727Z,75.30
2018-06-12T19:27:01.664Z,77.20
2018-06-12T19:31:07.381Z,76.80
2018-06-12T19:39:16.756Z,77.20
2018-06-12T19:43:20.791Z,75.80
2018-06-12T19:47:28.591Z,74.70
2018-06-12T19:51:32.240Z,78.10
2018-06-12T19:55:36.013Z,76.50
2018-06-12T19:59:41.733Z,77.00
2018-06-12T20:03:45.751Z,76.20
2018-06-12T20:07:59.944Z,77.20
2018-06-12T20:12:13.577Z,76.20
2018-06-12T20:16:18.060Z,78.50
2018-06-12T20:20:22.712Z,75.60
2018-06-12T20:24:30.673Z,77.90
2018-06-12T20:28:49.528Z,76.70
2018-06-12T20:32:54.638Z,75.90
2018-06-12T20:36:58.434Z,80.20
2018-06-12T20:41:14.135Z,74.90
2018-06-12T20:45:17.820Z,78.90
2018-06-12T20:53:24.719Z,79.10
2018-06-12T20:57:28.470Z,76.70
2018-06-12T21:01:32.859Z,78.50
2018-06-12T21:09:41.890Z,75.90
2018-06-12T21:13:45.891Z,78.30
2018-06-12T21:18:07.538Z,77.80
2018-06-12T21:22:11.373Z,76.60
2018-06-12T21:26:15.128Z,74.20
2018-06-12T21:30:18.831Z,75.50
2018-06-12T21:34:23.470Z,73.90
2018-06-12T21:38:27.721Z,75.80
2018-06-12T21:42:31.199Z,75.70
2018-06-12T21:46:35.871Z,74.30
2018-06-12T21:50:39.753Z,73.00
2018-06-12T21:54:43.558Z,75.70
2018-06-12T21:58:47.285Z,74.10
2018-06-12T22:02:51.048Z,75.20
2018-06-12T22:06:54.571Z,75.60
2018-06-12T22:10:58.323Z,76.40
2018-06-12T22:15:01.971Z,75.90
2018-06-12T22:19:06.838Z,77.50
2018-06-12T22:23:10.993Z,77.80
2018-06-12T22:27:35.282Z,78.30
2018-06-12T22:31:39.067Z,79.10
2018-06-12T22:35:43.167Z,79.20
2018-06-12T22:39:46.922Z,79.20
2018-06-12T22:43:50.634Z,79.80
2018-06-12T22:51:57.807Z,80.00
2018-06-12T22:56:01.414Z,79.60
2018-06-12T23:00:05.455Z,80.50
2018-06-12T23:04:09.167Z,80.30
2018-06-12T23:08:13.163Z,80.90
2018-06-12T23:12:16.711Z,80.80
2018-06-12T23:16:20.270Z,81.30
2018-06-12T23:21:39.477Z,81.50
2018-06-12T23:25:43.210Z,80.80
2018-06-12T23:29:46.947Z,80.70
2018-06-12T23:33:50.442Z,80.20
2018-06-12T23:37:54.227Z,80.60
2018-06-12T23:41:57.773Z,81.30
2018-06-12T23:46:01.530Z,79.70
2018-06-12T23:50:05.092Z,80.40
2018-06-12T23:54:09.446Z,81.50
2018-06-12T23:58:13.146Z,80.70
